Time,TemperatureF,DewpointF,PressureIn,WindDirection,WindDirectionDegrees,WindSpeedMPH,WindSpeedGustMPH,Humidity,HourlyPrecipIn,Conditions,Clouds,dailyrainin,SoftwareType,DateUTC
2013-05-25 00:01:00,45.7,31.3,29.76,NNW,338,0.0,0.0,57,0.00,,,0.00,WUHU216HW,2013-05-25 04:01:00,
2013-05-25 00:06:00,45.7,31.3,29.76,NNW,338,0.0,0.0,57,0.00,,,0.00,WUHU216HW,2013-05-25 04:06:00,
2013-05-25 00:30:00,45.2,32.1,29.76,ESE,113,1.1,1.1,60,0.00,,,0.00,WUHU216HW,2013-05-25 04:30:00,
2013-05-25 00:34:00,45.2,32.1,29.76,ESE,113,1.1,1.1,60,0.00,,,0.00,WUHU216HW,2013-05-25 04:34:00,
2013-05-25 00:59:00,44.8,32.6,29.76,WSW,248,1.3,1.3,62,0.00,,,0.00,WUHU216HW,2013-05-25 04:59:00,
2013-05-25 01:04:00,44.8,32.6,29.76,WSW,248,1.3,1.3,62,0.00,,,0.00,WUHU216HW,2013-05-25 05:04:00,
2013-05-25 01:29:00,44.1,32.3,29.76,West,270,2.7,2.7,63,0.00,,,0.00,WUHU216HW,2013-05-25 05:29:00,
2013-05-25 01:34:00,44.1,32.3,29.76,West,270,2.7,2.7,63,0.00,,,0.00,WUHU216HW,2013-05-25 05:34:00,
2013-05-25 01:59:00,43.6,32.1,29.75,WSW,248,3.4,3.4,64,0.00,,,0.00,WUHU216HW,2013-05-25 05:59:00,
2013-05-25 02:04:00,43.6,32.1,29.75,WSW,248,3.4,3.4,64,0.00,,,0.00,WUHU216HW,2013-05-25 06:04:00,
2013-05-25 02:29:00,43.0,32.4,29.75,West,270,1.8,1.8,66,0.00,,,0.00,WUHU216HW,2013-05-25 06:29:00,
2013-05-25 02:34:00,43.0,32.4,29.75,West,270,1.8,1.8,66,0.00,,,0.00,WUHU216HW,2013-05-25 06:34:00,
2013-05-25 02:59:00,42.8,33.0,29.75,WNW,293,0.2,0.2,68,0.00,,,0.00,WUHU216HW,2013-05-25 06:59:00,
2013-05-25 03:04:00,42.8,33.0,29.75,WNW,293,0.2,0.2,68,0.00,,,0.00,WUHU216HW,2013-05-25 07:04:00,
2013-05-25 03:30:00,42.8,33.0,29.76,WNW,293,2.9,2.9,68,0.00,,,0.00,WUHU216HW,2013-05-25 07:30:00,
2013-05-25 03:34:00,42.8,33.0,29.76,WNW,293,2.9,2.9,68,0.00,,,0.00,WUHU216HW,2013-05-25 07:34:00,
2013-05-25 04:00:00,42.1,32.3,29.76,WNW,293,4.5,4.5,68,0.00,,,0.00,WUHU216HW,2013-05-25 08:00:00,
2013-05-25 04:05:00,42.1,32.3,29.76,WNW,293,4.5,4.5,68,0.00,,,0.00,WUHU216HW,2013-05-25 08:05:00,
2013-05-25 04:30:00,42.1,32.3,29.75,WNW,293,6.0,6.0,68,0.00,,,0.00,WUHU216HW,2013-05-25 08:30:00,
2013-05-25 04:35:00,42.1,32.3,29.75,WNW,293,6.0,6.0,68,0.00,,,0.00,WUHU216HW,2013-05-25 08:35:00,
2013-05-25 05:00:00,42.1,32.3,29.76,NW,315,4.0,4.0,68,0.00,,,0.00,WUHU216HW,2013-05-25 09:00:00,
2013-05-25 05:05:00,42.1,32.3,29.76,NW,315,4.0,4.0,68,0.00,,,0.00,WUHU216HW,2013-05-25 09:05:00,
2013-05-25 05:30:00,41.6,31.8,29.77,WNW,293,2.5,2.5,68,0.00,,,0.00,WUHU216HW,2013-05-25 09:30:00,
2013-05-25 05:35:00,41.6,31.8,29.77,WNW,293,2.5,2.5,68,0.00,,,0.00,WUHU216HW,2013-05-25 09:35:00,
2013-05-25 06:00:00,41.4,32.1,29.77,West,270,1.8,1.8,69,0.00,,,0.00,WUHU216HW,2013-05-25 10:00:00,
2013-05-25 06:05:00,41.4,32.1,29.77,West,270,1.8,1.8,69,0.00,,,0.00,WUHU216HW,2013-05-25 10:05:00,
2013-05-25 06:30:00,41.0,32.0,29.78,WNW,293,1.3,1.3,70,0.00,,,0.00,WUHU216HW,2013-05-25 10:30:00,
2013-05-25 06:35:00,41.0,32.0,29.78,WNW,293,1.3,1.3,70,0.00,,,0.00,WUHU216HW,2013-05-25 10:35:00,
2013-05-25 06:59:00,42.1,33.5,29.78,WNW,293,4.0,4.0,71,0.00,,,0.00,WUHU216HW,2013-05-25 10:59:00,
2013-05-25 07:04:00,42.1,33.5,29.78,WNW,293,4.0,4.0,71,0.00,,,0.00,WUHU216HW,2013-05-25 11:04:00,
2013-05-25 07:30:00,43.6,34.1,29.79,WNW,293,5.1,5.1,69,0.00,,,0.00,WUHU216HW,2013-05-25 11:30:00,
2013-05-25 07:34:00,43.6,34.1,29.79,WNW,293,5.1,5.1,69,0.00,,,0.00,WUHU216HW,2013-05-25 11:34:00,
2013-05-25 07:59:00,44.8,34.9,29.79,NW,315,4.7,4.7,68,0.00,,,0.00,WUHU216HW,2013-05-25 11:59:00,
2013-05-25 08:04:00,44.8,34.9,29.79,NW,315,4.7,4.7,68,0.00,,,0.00,WUHU216HW,2013-05-25 12:04:00,
2013-05-25 08:29:00,46.3,36.3,29.79,West,270,4.3,4.3,68,0.00,,,0.00,WUHU216HW,2013-05-25 12:29:00,
2013-05-25 08:34:00,46.3,36.3,29.79,West,270,4.3,4.3,68,0.00,,,0.00,WUHU216HW,2013-05-25 12:34:00,
2013-05-25 08:59:00,48.2,37.0,29.78,North,0,4.0,4.0,65,0.00,,,0.00,WUHU216HW,2013-05-25 12:59:00,
2013-05-25 09:04:00,48.2,37.0,29.78,North,0,4.0,4.0,65,0.00,,,0.00,WUHU216HW,2013-05-25 13:04:00,
2013-05-25 09:30:00,50.0,38.4,29.77,WNW,293,6.9,6.9,64,0.00,,,0.00,WUHU216HW,2013-05-25 13:30:00,
2013-05-25 09:34:00,50.0,38.4,29.77,WNW,293,6.9,6.9,64,0.00,,,0.00,WUHU216HW,2013-05-25 13:34:00,
2013-05-25 09:59:00,51.1,38.5,29.76,WNW,293,6.7,6.7,62,0.00,,,0.00,WUHU216HW,2013-05-25 13:59:00,
2013-05-25 10:04:00,51.1,38.5,29.76,WNW,293,6.7,6.7,62,0.00,,,0.00,WUHU216HW,2013-05-25 14:04:00,
2013-05-25 10:30:00,53.1,39.6,29.76,WNW,293,3.4,3.4,60,0.00,,,0.00,WUHU216HW,2013-05-25 14:30:00,
2013-05-25 10:34:00,53.1,39.6,29.76,WNW,293,3.4,3.4,60,0.00,,,0.00,WUHU216HW,2013-05-25 14:34:00,
2013-05-25 10:59:00,53.5,39.5,29.76,WNW,293,8.3,8.3,59,0.00,,,0.00,WUHU216HW,2013-05-25 14:59:00,
2013-05-25 11:04:00,53.5,39.5,29.76,WNW,293,8.3,8.3,59,0.00,,,0.00,WUHU216HW,2013-05-25 15:04:00,
2013-05-25 11:30:00,56.5,40.1,29.76,WNW,293,10.1,10.1,54,0.00,,,0.00,WUHU216HW,2013-05-25 15:30:00,
2013-05-25 11:35:00,56.5,40.1,29.76,WNW,293,10.1,10.1,54,0.00,,,0.00,WUHU216HW,2013-05-25 15:35:00,
2013-05-25 11:59:00,58.7,39.6,29.75,West,270,5.6,5.6,49,0.00,,,0.00,WUHU216HW,2013-05-25 15:59:00,
2013-05-25 12:04:00,58.7,39.6,29.75,West,270,5.6,5.6,49,0.00,,,0.00,WUHU216HW,2013-05-25 16:04:00,
2013-05-25 12:30:00,60.1,40.3,29.73,West,270,3.6,3.6,48,0.00,,,0.00,WUHU216HW,2013-05-25 16:30:00,
2013-05-25 12:34:00,60.1,40.3,29.73,West,270,3.6,3.6,48,0.00,,,0.00,WUHU216HW,2013-05-25 16:34:00,
2013-05-25 12:59:00,62.3,40.0,29.72,WNW,293,9.4,9.4,44,0.00,,,0.00,WUHU216HW,2013-05-25 16:59:00,
2013-05-25 13:04:00,62.3,40.0,29.72,WNW,293,9.4,9.4,44,0.00,,,0.00,WUHU216HW,2013-05-25 17:04:00,
2013-05-25 13:30:00,62.8,42.2,29.71,WNW,293,6.7,6.7,47,0.00,,,0.00,WUHU216HW,2013-05-25 17:30:00,
2013-05-25 13:34:00,62.8,42.2,29.71,WNW,293,6.7,6.7,47,0.00,,,0.00,WUHU216HW,2013-05-25 17:34:00,
2013-05-25 13:59:00,64.1,40.4,29.71,WNW,293,4.9,4.9,42,0.00,,,0.00,WUHU216HW,2013-05-25 17:59:00,
2013-05-25 14:04:00,64.1,40.4,29.71,WNW,293,4.9,4.9,42,0.00,,,0.00,WUHU216HW,2013-05-25 18:04:00,
2013-05-25 14:30:00,67.1,43.2,29.70,WNW,293,6.9,6.9,42,0.00,,,0.00,WUHU216HW,2013-05-25 18:30:00,
2013-05-25 14:35:00,67.1,43.2,29.70,WNW,293,6.9,6.9,42,0.00,,,0.00,WUHU216HW,2013-05-25 18:35:00,
2013-05-25 14:59:00,68.0,43.5,29.70,NW,315,7.2,7.2,41,0.00,,,0.00,WUHU216HW,2013-05-25 18:59:00,
2013-05-25 15:04:00,68.0,43.5,29.70,NW,315,7.2,7.2,41,0.00,,,0.00,WUHU216HW,2013-05-25 19:04:00,
2013-05-25 15:30:00,68.6,41.9,29.70,West,270,10.1,10.1,38,0.00,,,0.00,WUHU216HW,2013-05-25 19:30:00,
2013-05-25 15:34:00,68.6,41.9,29.70,West,270,10.1,10.1,38,0.00,,,0.00,WUHU216HW,2013-05-25 19:34:00,
2013-05-25 15:59:00,66.1,41.0,29.69,West,270,7.6,7.6,40,0.00,,,0.00,WUHU216HW,2013-05-25 19:59:00,
2013-05-25 16:04:00,66.1,41.0,29.69,West,270,7.6,7.6,40,0.00,,,0.00,WUHU216HW,2013-05-25 20:04:00,
2013-05-25 16:29:00,65.3,40.4,29.69,WNW,293,8.5,8.5,40,0.00,,,0.00,WUHU216HW,2013-05-25 20:29:00,
2013-05-25 16:34:00,65.3,40.4,29.69,WNW,293,8.5,8.5,40,0.00,,,0.00,WUHU216HW,2013-05-25 20:34:00,
2013-05-25 17:00:00,64.3,39.4,29.68,North,0,4.5,4.5,40,0.00,,,0.00,WUHU216HW,2013-05-25 21:00:00,
2013-05-25 17:05:00,64.3,39.4,29.68,North,0,4.5,4.5,40,0.00,,,0.00,WUHU216HW,2013-05-25 21:05:00,
2013-05-25 17:30:00,66.2,40.5,29.68,WNW,293,6.0,6.0,39,0.00,,,0.00,WUHU216HW,2013-05-25 21:30:00,
2013-05-25 17:35:00,66.2,40.5,29.68,WNW,293,6.0,6.0,39,0.00,,,0.00,WUHU216HW,2013-05-25 21:35:00,
2013-05-25 18:00:00,65.9,38.7,29.68,West,270,0.7,0.7,37,0.00,,,0.00,WUHU216HW,2013-05-25 22:00:00,
2013-05-25 18:05:00,65.9,38.7,29.68,West,270,0.7,0.7,37,0.00,,,0.00,WUHU216HW,2013-05-25 22:05:00,
2013-05-25 18:30:00,64.4,39.6,29.68,WNW,293,6.5,6.5,40,0.00,,,0.00,WUHU216HW,2013-05-25 22:30:00,
2013-05-25 18:35:00,64.4,39.6,29.68,WNW,293,6.5,6.5,40,0.00,,,0.00,WUHU216HW,2013-05-25 22:35:00,
2013-05-25 19:00:00,63.5,38.8,29.68,WNW,293,5.4,5.4,40,0.00,,,0.00,WUHU216HW,2013-05-25 23:00:00,
2013-05-25 19:05:00,63.5,38.8,29.68,WNW,293,5.4,5.4,40,0.00,,,0.00,WUHU216HW,2013-05-25 23:05:00,
2013-05-25 19:30:00,62.3,38.3,29.70,WNW,293,3.6,3.6,41,0.00,,,0.00,WUHU216HW,2013-05-25 23:30:00,
2013-05-25 19:35:00,62.3,38.3,29.70,WNW,293,3.6,3.6,41,0.00,,,0.00,WUHU216HW,2013-05-25 23:35:00,
2013-05-25 19:59:00,60.8,37.5,29.69,NW,315,4.0,4.0,42,0.00,,,0.00,WUHU216HW,2013-05-25 23:59:00,
2013-05-25 20:04:00,60.8,37.5,29.69,NW,315,4.0,4.0,42,0.00,,,0.00,WUHU216HW,2013-05-26 00:04:00,
2013-05-25 20:29:00,59.0,37.6,29.69,WNW,293,4.3,4.3,45,0.00,,,0.00,WUHU216HW,2013-05-26 00:29:00,
2013-05-25 20:34:00,59.0,37.6,29.69,WNW,293,4.3,4.3,45,0.00,,,0.00,WUHU216HW,2013-05-26 00:34:00,
2013-05-25 20:59:00,58.1,37.4,29.69,WNW,293,3.6,3.6,46,0.00,,,0.00,WUHU216HW,2013-05-26 00:59:00,
2013-05-25 21:04:00,58.1,37.4,29.69,WNW,293,3.6,3.6,46,0.00,,,0.00,WUHU216HW,2013-05-26 01:04:00,
2013-05-25 21:29:00,57.1,37.5,29.71,West,270,2.0,2.0,48,0.00,,,0.00,WUHU216HW,2013-05-26 01:29:00,
2013-05-25 21:35:00,57.1,37.5,29.71,West,270,2.0,2.0,48,0.00,,,0.00,WUHU216HW,2013-05-26 01:35:00,
2013-05-25 21:59:00,55.3,36.9,29.71,WNW,293,2.2,2.2,50,0.00,,,0.00,WUHU216HW,2013-05-26 01:59:00,
2013-05-25 22:04:00,55.3,36.9,29.71,WNW,293,2.2,2.2,50,0.00,,,0.00,WUHU216HW,2013-05-26 02:04:00,
2013-05-25 22:29:00,55.3,36.9,29.72,NW,315,2.5,2.5,50,0.00,,,0.00,WUHU216HW,2013-05-26 02:29:00,
2013-05-25 22:34:00,55.3,36.9,29.72,NW,315,2.5,2.5,50,0.00,,,0.00,WUHU216HW,2013-05-26 02:34:00,
2013-05-25 22:59:00,54.2,35.9,29.73,SW,225,0.4,0.4,50,0.00,,,0.00,WUHU216HW,2013-05-26 02:59:00,
2013-05-25 23:04:00,54.2,35.9,29.73,SW,225,0.4,0.4,50,0.00,,,0.00,WUHU216HW,2013-05-26 03:04:00,
2013-05-25 23:29:00,53.6,35.5,29.73,ESE,113,0.4,0.4,50,0.00,,,0.00,WUHU216HW,2013-05-26 03:29:00,
2013-05-25 23:34:00,53.6,35.5,29.73,ESE,113,0.4,0.4,50,0.00,,,0.00,WUHU216HW,2013-05-26 03:34:00,
2013-05-25 23:59:00,52.4,35.7,29.74,SSW,203,0.2,0.2,53,0.00,,,0.00,WUHU216HW,2013-05-26 03:59:00,